createdAt,value
2017-11-12T00:01:19.580Z,4.80
2017-11-12T00:03:47.077Z,4.80
2017-11-12T00:06:15.312Z,4.70
2017-11-12T00:08:42.786Z,4.70
2017-11-12T00:11:10.243Z,4.70
2017-11-12T00:13:38.492Z,4.70
2017-11-12T00:16:05.957Z,4.60
2017-11-12T00:18:33.428Z,4.60
2017-11-12T00:21:02.430Z,4.60
2017-11-12T00:23:30.665Z,4.50
2017-11-12T00:25:58.136Z,4.50
2017-11-12T00:28:25.604Z,4.40
2017-11-12T00:30:53.078Z,4.30
2017-11-12T00:33:21.352Z,4.30
2017-11-12T00:35:48.804Z,4.30
2017-11-12T00:38:17.054Z,4.30
2017-11-12T00:40:44.587Z,4.30
2017-11-12T00:43:12.051Z,4.20
2017-11-12T00:45:39.519Z,4.20
2017-11-12T00:48:06.992Z,4.30
2017-11-12T00:50:34.460Z,4.40
2017-11-12T00:53:02.711Z,4.50
2017-11-12T00:55:30.213Z,4.50
2017-11-12T00:57:57.687Z,4.60
2017-11-12T01:00:25.161Z,4.60
2017-11-12T01:02:52.616Z,4.70
2017-11-12T01:05:20.088Z,4.70
2017-11-12T01:07:47.566Z,4.70
2017-11-12T01:10:15.984Z,4.70
2017-11-12T01:12:43.460Z,4.70
2017-11-12T01:15:10.936Z,4.80
2017-11-12T01:17:38.406Z,4.70
2017-11-12T01:20:05.872Z,4.80
2017-11-12T01:22:34.102Z,4.80
2017-11-12T01:25:01.564Z,4.80
2017-11-12T01:27:29.024Z,4.80
2017-11-12T01:29:56.572Z,4.80
2017-11-12T01:32:24.033Z,4.80
2017-11-12T01:34:51.511Z,4.90
2017-11-12T01:37:18.971Z,4.80
2017-11-12T01:39:46.445Z,4.80
2017-11-12T01:42:13.912Z,4.90
2017-11-12T01:44:41.378Z,4.90
2017-11-12T01:47:09.616Z,4.90
2017-11-12T01:49:37.068Z,4.90
2017-11-12T01:52:04.563Z,4.90
2017-11-12T01:54:32.803Z,4.90
2017-11-12T01:57:00.277Z,4.90
2017-11-12T01:59:27.759Z,4.90
2017-11-12T02:01:55.224Z,4.80
2017-11-12T02:04:22.683Z,4.90
2017-11-12T02:06:50.192Z,4.90
2017-11-12T02:09:17.655Z,4.90
2017-11-12T02:11:46.624Z,4.90
2017-11-12T02:14:14.104Z,4.90
2017-11-12T02:16:41.564Z,5.00
2017-11-12T02:19:09.060Z,4.90
2017-11-12T02:21:36.532Z,4.90
2017-11-12T02:24:03.992Z,4.90
2017-11-12T02:26:31.468Z,4.90
2017-11-12T02:28:58.933Z,4.80
2017-11-12T02:31:26.427Z,4.80
2017-11-12T02:33:54.651Z,4.70
2017-11-12T02:36:22.164Z,4.60
2017-11-12T02:38:49.627Z,4.60
2017-11-12T02:41:17.100Z,4.60
2017-11-12T02:43:44.581Z,4.60
2017-11-12T02:46:12.058Z,4.60
2017-11-12T02:48:39.568Z,4.60
2017-11-12T02:51:07.016Z,4.50
2017-11-12T02:53:34.488Z,4.50
2017-11-12T02:56:01.965Z,4.50
2017-11-12T02:58:29.427Z,4.60
2017-11-12T03:00:56.912Z,4.60
2017-11-12T03:03:26.446Z,4.70
2017-11-12T03:05:53.912Z,4.60
2017-11-12T03:08:21.388Z,4.60
2017-11-12T03:10:48.852Z,4.70
2017-11-12T03:13:16.332Z,4.80
2017-11-12T03:15:43.795Z,4.80
2017-11-12T03:18:11.272Z,4.80
2017-11-12T03:20:38.751Z,4.80
2017-11-12T03:23:06.228Z,4.80
2017-11-12T03:25:33.702Z,4.80
2017-11-12T03:28:01.186Z,4.80
2017-11-12T03:30:29.443Z,4.90
2017-11-12T03:32:56.900Z,4.90
2017-11-12T03:35:25.890Z,4.90
2017-11-12T03:37:53.347Z,4.90
2017-11-12T03:40:20.836Z,5.00
2017-11-12T03:42:49.088Z,5.00
2017-11-12T03:45:16.556Z,4.90
2017-11-12T03:47:44.804Z,5.00
2017-11-12T03:50:12.270Z,4.90
2017-11-12T03:52:39.720Z,5.00
2017-11-12T03:55:07.202Z,5.00
2017-11-12T03:57:35.440Z,5.00
2017-11-12T04:00:02.920Z,5.00
2017-11-12T04:02:31.148Z,4.90
2017-11-12T04:04:58.616Z,4.90
2017-11-12T04:07:26.099Z,4.90
2017-11-12T04:09:55.071Z,4.90
2017-11-12T04:12:22.536Z,4.90
2017-11-12T04:14:50.017Z,4.90
2017-11-12T04:17:17.500Z,4.90
2017-11-12T04:19:44.984Z,4.90
2017-11-12T04:22:12.444Z,4.90
2017-11-12T04:24:39.928Z,4.90
2017-11-12T04:27:07.393Z,4.90
2017-11-12T04:29:34.876Z,5.00
2017-11-12T04:32:03.107Z,4.90
2017-11-12T04:34:30.568Z,5.00
2017-11-12T04:36:58.049Z,4.90
2017-11-12T04:39:26.275Z,5.00
2017-11-12T04:41:53.760Z,4.90
2017-11-12T04:44:21.223Z,5.00
2017-11-12T04:46:48.704Z,5.00
2017-11-12T04:49:16.948Z,5.00
2017-11-12T04:51:44.402Z,5.00
2017-11-12T04:54:11.884Z,5.00
2017-11-12T04:56:40.117Z,5.00
2017-11-12T04:59:07.616Z,5.00
2017-11-12T05:01:35.845Z,5.10
2017-11-12T05:04:03.323Z,5.10
2017-11-12T05:06:30.810Z,5.10
2017-11-12T05:08:59.040Z,5.10
2017-11-12T05:11:26.524Z,5.10
2017-11-12T05:13:53.979Z,5.10
2017-11-12T05:16:22.213Z,5.10
2017-11-12T05:18:49.684Z,5.10
2017-11-12T05:21:17.152Z,5.20
2017-11-12T05:23:44.632Z,5.20
2017-11-12T05:26:12.863Z,5.30
2017-11-12T05:28:40.332Z,5.20
2017-11-12T05:31:07.869Z,5.30
2017-11-12T05:33:35.344Z,5.20
2017-11-12T05:36:02.873Z,5.20
2017-11-12T05:38:30.335Z,5.20
2017-11-12T05:40:57.813Z,5.30
2017-11-12T05:43:25.287Z,5.20
2017-11-12T05:45:53.528Z,5.20
2017-11-12T05:48:21.004Z,5.20
2017-11-12T05:50:48.485Z,5.10
2017-11-12T05:53:16.727Z,5.10
2017-11-12T05:55:44.216Z,5.10
2017-11-12T05:58:11.685Z,5.20
2017-11-12T06:00:39.925Z,5.20
2017-11-12T06:03:07.405Z,5.20
2017-11-12T06:05:34.863Z,5.30
2017-11-12T06:08:03.113Z,5.20
2017-11-12T06:10:30.595Z,5.20
2017-11-12T06:12:58.841Z,5.20
2017-11-12T06:15:26.324Z,5.20
2017-11-12T06:17:53.785Z,5.20
2017-11-12T06:20:22.023Z,5.20
2017-11-12T06:22:49.503Z,5.20
2017-11-12T06:25:16.980Z,5.20
2017-11-12T06:27:45.208Z,5.20
2017-11-12T06:30:12.688Z,5.30
2017-11-12T06:32:40.163Z,5.20
2017-11-12T06:35:08.396Z,5.20
2017-11-12T06:37:35.876Z,5.20
2017-11-12T06:40:03.336Z,5.20
2017-11-12T06:42:30.812Z,5.20
2017-11-12T06:44:59.039Z,5.20
2017-11-12T06:47:26.523Z,5.20
2017-11-12T06:49:54.005Z,5.30
2017-11-12T06:52:22.248Z,5.20
2017-11-12T06:54:49.736Z,5.20
2017-11-12T06:57:18.017Z,5.30
2017-11-12T06:59:46.221Z,5.30
2017-11-12T07:02:13.713Z,5.30
2017-11-12T07:04:41.179Z,5.30
2017-11-12T07:07:08.664Z,5.30
2017-11-12T07:09:36.140Z,5.20
2017-11-12T07:12:03.603Z,5.20
2017-11-12T07:14:31.074Z,5.30
2017-11-12T07:16:58.560Z,5.30
2017-11-12T07:19:26.817Z,5.30
2017-11-12T07:21:54.290Z,5.30
2017-11-12T07:24:21.751Z,5.30
2017-11-12T07:26:49.220Z,5.30
2017-11-12T07:29:17.463Z,5.30
2017-11-12T07:31:44.944Z,5.30
2017-11-12T07:34:13.168Z,5.30
2017-11-12T07:36:40.661Z,5.30
2017-11-12T07:39:08.132Z,5.30
2017-11-12T07:41:36.357Z,5.40
2017-11-12T07:44:03.841Z,5.40
2017-11-12T07:46:31.316Z,5.40
2017-11-12T07:48:58.805Z,5.40
2017-11-12T07:51:26.268Z,5.40
2017-11-12T07:53:53.743Z,5.40
2017-11-12T07:56:21.216Z,5.40
2017-11-12T07:58:48.685Z,5.30
2017-11-12T08:01:16.176Z,5.30
2017-11-12T08:03:44.407Z,5.40
2017-11-12T08:06:11.897Z,5.40
2017-11-12T08:08:40.123Z,5.50
2017-11-12T08:11:08.404Z,5.50
2017-11-12T08:13:35.872Z,5.50
2017-11-12T08:16:03.355Z,5.60
2017-11-12T08:18:31.600Z,5.60
2017-11-12T08:20:59.072Z,5.60
2017-11-12T08:23:26.564Z,5.60
2017-11-12T08:25:54.039Z,5.60
2017-11-12T08:28:21.508Z,5.60
2017-11-12T08:30:48.983Z,5.60
2017-11-12T08:33:16.469Z,5.70
2017-11-12T08:35:44.717Z,5.70
2017-11-12T08:38:12.250Z,5.70
2017-11-12T08:40:39.712Z,5.70
2017-11-12T08:43:07.188Z,5.80
2017-11-12T08:45:34.659Z,5.80
2017-11-12T08:48:02.180Z,5.80
2017-11-12T08:50:29.658Z,5.80
2017-11-12T08:52:57.156Z,5.90
2017-11-12T08:55:25.391Z,5.90
2017-11-12T08:57:52.900Z,5.90
2017-11-12T09:00:20.361Z,5.90
2017-11-12T09:02:47.824Z,5.90
2017-11-12T09:05:15.316Z,6.00
2017-11-12T09:07:42.789Z,6.00
2017-11-12T09:10:10.271Z,6.00
2017-11-12T09:12:38.535Z,6.10
2017-11-12T09:15:06.786Z,6.10
2017-11-12T09:17:34.250Z,6.10
2017-11-12T09:20:01.728Z,6.10
2017-11-12T09:22:29.980Z,6.10
2017-11-12T09:24:57.447Z,6.10
2017-11-12T09:27:24.940Z,6.20
2017-11-12T09:29:52.612Z,6.20
2017-11-12T09:32:20.101Z,6.30
2017-11-12T09:34:47.588Z,6.30
2017-11-12T09:37:15.859Z,6.20
2017-11-12T09:39:43.340Z,6.20
2017-11-12T09:42:11.564Z,6.10
2017-11-12T09:44:39.059Z,6.10
2017-11-12T09:47:06.587Z,6.20
2017-11-12T09:49:34.067Z,6.10
2017-11-12T09:52:02.308Z,6.10
2017-11-12T09:54:29.803Z,6.10
2017-11-12T09:56:58.034Z,6.10
2017-11-12T09:59:25.516Z,6.10
2017-11-12T10:01:53.004Z,6.20
2017-11-12T10:04:20.473Z,6.20
2017-11-12T10:06:47.974Z,6.20
2017-11-12T10:09:15.437Z,6.20
2017-11-12T10:11:42.943Z,6.20
2017-11-12T10:14:10.409Z,6.30
2017-11-12T10:16:38.753Z,6.50
2017-11-12T10:19:06.997Z,6.70
2017-11-12T10:21:34.472Z,6.70
2017-11-12T10:24:01.950Z,6.70
2017-11-12T10:26:30.253Z,6.90
2017-11-12T10:28:57.733Z,6.90
2017-11-12T10:31:25.200Z,7.00
2017-11-12T10:33:52.705Z,7.00
2017-11-12T10:36:20.280Z,7.10
2017-11-12T10:38:47.733Z,7.10
2017-11-12T10:41:15.187Z,7.10
2017-11-12T10:43:42.716Z,7.10
2017-11-12T10:46:11.016Z,7.50
2017-11-12T10:48:38.498Z,7.40
2017-11-12T10:51:05.973Z,7.70
2017-11-12T10:53:33.457Z,7.80
2017-11-12T10:56:01.697Z,7.60
2017-11-12T10:58:29.172Z,7.60
2017-11-12T11:00:56.641Z,7.40
2017-11-12T11:03:24.867Z,7.40
2017-11-12T11:05:52.315Z,7.40
2017-11-12T11:08:19.794Z,7.50
2017-11-12T11:10:47.265Z,7.40
2017-11-12T11:13:14.740Z,7.20
2017-11-12T11:15:42.217Z,7.00
2017-11-12T11:18:09.676Z,7.00
2017-11-12T11:20:37.911Z,7.00
2017-11-12T11:23:05.368Z,7.00
2017-11-12T11:25:32.823Z,7.00
2017-11-12T11:28:00.313Z,7.10
2017-11-12T11:30:28.544Z,7.30
2017-11-12T11:32:56.019Z,7.30
2017-11-12T11:35:23.496Z,7.50
2017-11-12T11:37:51.760Z,8.00
2017-11-12T11:40:20.023Z,8.30
2017-11-12T11:42:47.508Z,8.30
2017-11-12T11:45:15.720Z,8.00
2017-11-12T11:47:44.495Z,7.90
2017-11-12T11:50:11.960Z,7.80
2017-11-12T11:52:39.428Z,7.40
2017-11-12T11:55:06.903Z,7.20
2017-11-12T11:57:34.394Z,7.10
2017-11-12T12:00:02.631Z,7.00
2017-11-12T12:02:30.090Z,7.00
2017-11-12T12:04:57.573Z,6.80
2017-11-12T12:07:27.220Z,6.70
2017-11-12T12:09:54.688Z,6.70
2017-11-12T12:12:22.144Z,6.80
2017-11-12T12:14:49.595Z,6.90
2017-11-12T12:17:17.064Z,6.90
2017-11-12T12:19:44.540Z,6.90
2017-11-12T12:22:12.030Z,6.90
2017-11-12T12:24:40.277Z,6.90
2017-11-12T12:27:07.798Z,6.90
2017-11-12T12:29:35.358Z,6.80
2017-11-12T12:32:02.833Z,6.90
2017-11-12T12:34:30.323Z,7.00
2017-11-12T12:36:58.589Z,7.10
2017-11-12T12:39:26.052Z,7.10
2017-11-12T12:41:54.288Z,7.20
2017-11-12T12:44:24.008Z,7.10
2017-11-12T12:46:51.487Z,7.20
2017-11-12T12:49:19.728Z,7.30
2017-11-12T12:51:47.219Z,7.30
2017-11-12T12:54:14.688Z,7.30
2017-11-12T12:56:42.931Z,7.30
2017-11-12T12:59:10.453Z,7.30
2017-11-12T13:01:37.959Z,7.30
2017-11-12T13:04:05.440Z,7.20
2017-11-12T13:06:33.673Z,7.00
2017-11-12T13:09:01.157Z,6.90
2017-11-12T13:11:30.121Z,5.70
2017-11-12T13:13:57.588Z,5.70
2017-11-12T13:16:25.060Z,5.20
2017-11-12T13:18:53.294Z,4.70
2017-11-12T13:21:20.801Z,4.60
2017-11-12T13:23:49.049Z,4.70
2017-11-12T13:26:18.024Z,4.80
2017-11-12T13:28:45.529Z,4.90
2017-11-12T13:31:14.123Z,5.00
2017-11-12T13:33:42.221Z,5.00
2017-11-12T13:36:11.208Z,5.40
2017-11-12T13:38:39.385Z,5.40
2017-11-12T13:41:07.252Z,5.90
2017-11-12T13:43:35.112Z,6.20
2017-11-12T13:46:03.083Z,6.50
2017-11-12T13:48:31.765Z,6.50
2017-11-12T13:50:59.735Z,6.50
2017-11-12T13:53:27.904Z,6.30
2017-11-12T13:55:56.060Z,6.00
2017-11-12T13:58:24.204Z,5.80
2017-11-12T14:00:52.526Z,5.90
2017-11-12T14:03:20.548Z,5.90
2017-11-12T14:05:48.360Z,6.00
2017-11-12T14:08:16.714Z,6.00
2017-11-12T14:10:44.815Z,6.00
2017-11-12T14:13:13.086Z,5.90
2017-11-12T14:15:41.155Z,6.00
2017-11-12T14:18:09.229Z,5.90
2017-11-12T14:20:37.195Z,5.80
2017-11-12T14:23:05.392Z,5.90
2017-11-12T14:25:33.088Z,5.90
2017-11-12T14:28:01.313Z,5.90
2017-11-12T14:30:28.799Z,5.90
2017-11-12T14:32:56.258Z,5.80
2017-11-12T14:35:23.793Z,5.80
2017-11-12T14:37:51.252Z,5.80
2017-11-12T14:40:18.729Z,6.00
2017-11-12T14:42:46.217Z,6.00
2017-11-12T14:45:14.442Z,5.90
2017-11-12T14:47:41.915Z,5.90
2017-11-12T14:50:09.385Z,5.90
2017-11-12T14:52:36.853Z,5.70
2017-11-12T14:55:05.160Z,5.50
2017-11-12T14:57:32.604Z,5.50
2017-11-12T15:00:00.085Z,5.50
2017-11-12T15:02:27.567Z,5.40
2017-11-12T15:04:55.031Z,5.50
2017-11-12T15:07:22.514Z,5.50
2017-11-12T15:09:50.760Z,5.40
2017-11-12T15:12:18.248Z,5.30
2017-11-12T15:14:46.480Z,5.20
2017-11-12T15:17:13.952Z,5.20
2017-11-12T15:19:42.947Z,5.30
2017-11-12T15:22:10.428Z,5.30
2017-11-12T15:24:38.665Z,5.30
2017-11-12T15:27:06.123Z,5.30
2017-11-12T15:29:33.596Z,5.30
2017-11-12T15:32:01.064Z,5.30
2017-11-12T15:34:29.323Z,5.30
2017-11-12T15:36:56.793Z,5.30
2017-11-12T15:39:24.265Z,5.20
2017-11-12T15:41:51.755Z,5.10
2017-11-12T15:44:19.206Z,4.90
2017-11-12T15:46:46.688Z,4.90
2017-11-12T15:49:14.256Z,4.80
2017-11-12T15:51:41.755Z,4.80
2017-11-12T15:54:10.352Z,4.80
2017-11-12T15:56:37.829Z,4.70
2017-11-12T15:59:05.332Z,4.70
2017-11-12T16:01:33.567Z,4.70
2017-11-12T16:04:01.033Z,4.70
2017-11-12T16:06:28.496Z,4.60
2017-11-12T16:08:55.973Z,4.60
2017-11-12T16:11:23.436Z,4.60
2017-11-12T16:13:51.689Z,4.60
2017-11-12T16:16:19.173Z,4.60
2017-11-12T16:18:47.402Z,4.60
2017-11-12T16:21:14.864Z,4.60
2017-11-12T16:23:42.343Z,4.60
2017-11-12T16:26:09.800Z,4.60
2017-11-12T16:28:37.255Z,4.70
2017-11-12T16:31:04.736Z,4.70
2017-11-12T16:33:32.980Z,4.70
2017-11-12T16:36:00.445Z,4.70
2017-11-12T16:38:27.901Z,4.70
2017-11-12T16:40:55.377Z,4.70
2017-11-12T16:43:23.647Z,4.60
2017-11-12T16:45:51.876Z,4.60
2017-11-12T16:48:19.364Z,4.50
2017-11-12T16:50:46.840Z,4.50
2017-11-12T16:53:15.081Z,4.60
2017-11-12T16:55:42.551Z,4.50
2017-11-12T16:58:10.028Z,4.60
2017-11-12T17:00:38.284Z,4.60
2017-11-12T17:03:05.749Z,4.50
2017-11-12T17:05:33.998Z,4.60
2017-11-12T17:08:01.496Z,4.60
2017-11-12T17:10:29.756Z,4.60
2017-11-12T17:12:58.018Z,4.60
2017-11-12T17:15:25.493Z,4.60
2017-11-12T17:17:53.739Z,4.60
2017-11-12T17:20:21.245Z,4.60
2017-11-12T17:22:48.724Z,4.60
2017-11-12T17:25:16.216Z,4.60
2017-11-12T17:27:44.540Z,4.60
2017-11-12T17:30:12.023Z,4.70
2017-11-12T17:32:39.492Z,4.70
2017-11-12T17:35:06.964Z,4.70
2017-11-12T17:37:34.425Z,4.70
2017-11-12T17:40:01.901Z,4.70
2017-11-12T17:42:30.140Z,4.70
2017-11-12T17:44:57.616Z,4.70
2017-11-12T17:47:25.878Z,4.70
2017-11-12T17:49:53.347Z,4.70
2017-11-12T17:52:20.852Z,4.70
2017-11-12T17:54:48.320Z,4.70
2017-11-12T17:57:15.785Z,4.70
2017-11-12T17:59:43.256Z,4.70
2017-11-12T18:02:10.744Z,4.80
2017-11-12T18:04:38.989Z,4.80
2017-11-12T18:07:06.440Z,4.80
2017-11-12T18:09:33.912Z,4.80
2017-11-12T18:12:01.380Z,4.80
2017-11-12T18:14:29.620Z,4.90
2017-11-12T18:16:57.096Z,4.80
2017-11-12T18:19:24.561Z,4.90
2017-11-12T18:21:52.033Z,4.90
2017-11-12T18:24:20.290Z,4.90
2017-11-12T18:26:47.756Z,4.80
2017-11-12T18:29:15.997Z,4.70
2017-11-12T18:31:43.473Z,4.70
2017-11-12T18:34:11.712Z,4.70
2017-11-12T18:36:39.183Z,4.70
2017-11-12T18:39:06.656Z,4.70
2017-11-12T18:41:34.137Z,4.60
2017-11-12T18:44:02.367Z,4.50
2017-11-12T18:46:29.852Z,4.50
2017-11-12T18:48:57.320Z,4.50
2017-11-12T18:51:25.576Z,4.50
2017-11-12T18:53:53.040Z,4.40
2017-11-12T18:56:20.996Z,4.50
2017-11-12T18:58:50.976Z,4.50
2017-11-12T19:01:24.246Z,4.50
2017-11-12T19:03:57.400Z,4.40
2017-11-12T19:09:33.940Z,4.40
2017-11-12T19:12:02.047Z,4.40
2017-11-12T19:14:29.559Z,4.50
2017-11-12T19:17:07.876Z,4.50
2017-11-12T19:19:35.965Z,4.50
2017-11-12T19:22:03.978Z,4.50
2017-11-12T19:24:52.368Z,4.50
2017-11-12T19:27:19.836Z,4.40
2017-11-12T19:29:53.037Z,4.30
2017-11-12T19:32:20.516Z,4.20
2017-11-12T19:34:47.992Z,4.10
2017-11-12T19:37:16.237Z,4.00
2017-11-12T19:39:43.707Z,3.90
2017-11-12T19:42:11.233Z,3.90
2017-11-12T19:44:38.691Z,3.90
2017-11-12T19:47:06.167Z,4.00
2017-11-12T19:49:33.640Z,4.00
2017-11-12T19:52:01.117Z,4.10
2017-11-12T19:54:30.160Z,4.20
2017-11-12T19:56:57.655Z,4.20
2017-11-12T19:59:25.128Z,4.20
2017-11-12T20:01:53.368Z,4.30
2017-11-12T20:04:20.836Z,4.30
2017-11-12T20:06:48.321Z,4.40
2017-11-12T20:09:15.810Z,4.40
2017-11-12T20:11:43.270Z,4.40
2017-11-12T20:14:10.744Z,4.50
2017-11-12T20:16:38.221Z,4.50
2017-11-12T20:19:05.705Z,4.50
2017-11-12T20:21:33.193Z,4.50
2017-11-12T20:24:00.688Z,4.40
2017-11-12T20:26:28.159Z,4.40
2017-11-12T20:28:56.410Z,4.30
2017-11-12T20:31:23.877Z,4.30
2017-11-12T20:33:51.360Z,4.20
2017-11-12T20:36:19.604Z,4.20
2017-11-12T20:38:47.077Z,4.20
2017-11-12T20:41:15.324Z,4.10
2017-11-12T20:43:42.831Z,4.10
2017-11-12T20:46:10.336Z,4.10
2017-11-12T20:48:37.808Z,4.00
2017-11-12T20:51:07.769Z,4.00
2017-11-12T20:53:35.250Z,4.10
2017-11-12T20:56:02.715Z,4.20
2017-11-12T20:58:30.187Z,4.30
2017-11-12T21:01:02.562Z,4.30
2017-11-12T21:03:31.540Z,4.40
2017-11-12T21:05:59.504Z,4.50
2017-11-12T21:08:26.989Z,4.50
2017-11-12T21:10:54.464Z,4.60
2017-11-12T21:13:22.703Z,4.60
2017-11-12T21:15:50.169Z,4.60
2017-11-12T21:18:17.640Z,4.60
2017-11-12T21:20:46.656Z,4.70
2017-11-12T21:23:14.136Z,4.70
2017-11-12T21:25:41.614Z,4.70
2017-11-12T21:28:10.620Z,4.70
2017-11-12T21:30:39.940Z,4.60
2017-11-12T21:33:24.137Z,4.50
2017-11-12T21:35:51.633Z,4.50
2017-11-12T21:38:19.120Z,4.40
2017-11-12T21:40:46.580Z,4.30
2017-11-12T21:43:14.082Z,4.30
2017-11-12T21:45:41.537Z,4.30
2017-11-12T21:48:08.995Z,4.30
2017-11-12T21:50:36.625Z,4.30
2017-11-12T21:53:04.092Z,4.40
2017-11-12T21:55:31.568Z,4.30
2017-11-12T21:57:59.032Z,4.20
2017-11-12T22:00:26.503Z,4.20
2017-11-12T22:02:53.959Z,4.10
2017-11-12T22:05:21.436Z,4.10
2017-11-12T22:07:49.683Z,4.10
2017-11-12T22:10:17.137Z,4.10
2017-11-12T22:12:44.625Z,4.20
2017-11-12T22:15:12.843Z,4.30
2017-11-12T22:17:40.349Z,4.30
2017-11-12T22:20:08.609Z,4.40
2017-11-12T22:22:36.078Z,4.40
2017-11-12T22:25:03.548Z,4.40
2017-11-12T22:27:31.780Z,4.20
2017-11-12T22:29:59.252Z,4.20
2017-11-12T22:32:28.216Z,4.10
2017-11-12T22:34:55.680Z,4.10
2017-11-12T22:37:23.136Z,4.00
2017-11-12T22:39:50.604Z,4.00
2017-11-12T22:42:18.096Z,3.90
2017-11-12T22:44:46.320Z,3.90
2017-11-12T22:47:13.797Z,3.90
2017-11-12T22:49:41.261Z,4.00
2017-11-12T22:52:08.761Z,3.90
2017-11-12T22:54:36.203Z,3.90
2017-11-12T22:57:03.663Z,3.90
2017-11-12T22:59:31.140Z,3.80
2017-11-12T23:01:58.600Z,3.80
2017-11-12T23:04:26.152Z,3.70
2017-11-12T23:06:53.608Z,3.70
2017-11-12T23:09:21.087Z,3.70
2017-11-12T23:11:48.569Z,3.60
2017-11-12T23:14:16.028Z,3.60
2017-11-12T23:16:43.486Z,3.60
2017-11-12T23:19:11.740Z,3.50
2017-11-12T23:21:39.206Z,3.50
2017-11-12T23:24:06.662Z,3.50
2017-11-12T23:26:34.132Z,3.50
2017-11-12T23:29:02.386Z,3.50
2017-11-12T23:31:29.839Z,3.50
2017-11-12T23:33:57.318Z,3.40
2017-11-12T23:36:25.541Z,3.40
2017-11-12T23:38:53.012Z,3.40
2017-11-12T23:41:20.475Z,3.40
2017-11-12T23:43:47.953Z,3.50
2017-11-12T23:46:15.408Z,3.50
2017-11-12T23:48:42.881Z,3.50
2017-11-12T23:51:11.156Z,3.50
2017-11-12T23:53:38.604Z,3.40
2017-11-12T23:56:06.084Z,3.50
2017-11-12T23:58:34.308Z,3.50
